createdAt,value
2018-05-17T00:01:56.293Z,101932.02
2018-05-17T00:04:23.925Z,101924.87
2018-05-17T00:06:51.492Z,101930.58
2018-05-17T00:09:19.215Z,101923.79
2018-05-17T00:11:47.098Z,101926.46
2018-05-17T00:16:41.553Z,101934.98
2018-05-17T00:19:09.212Z,101932.11
2018-05-17T00:21:37.069Z,101934.48
2018-05-17T00:24:04.641Z,101930.39
2018-05-17T00:26:32.268Z,101927.53
2018-05-17T00:28:59.855Z,101924.69
2018-05-17T00:31:27.482Z,101919.27
2018-05-17T00:33:55.171Z,101926.48
2018-05-17T00:36:22.755Z,101924.98
2018-05-17T00:38:50.605Z,101924.13
2018-05-17T00:41:18.176Z,101918.48
2018-05-17T00:43:45.792Z,101922.39
2018-05-17T00:46:13.400Z,101920.33
2018-05-17T00:48:40.994Z,101920.59
2018-05-17T00:51:08.635Z,101918.42
2018-05-17T00:53:36.333Z,101920.17
2018-05-17T00:56:03.912Z,101919.32
2018-05-17T00:58:31.764Z,101922.28
2018-05-17T01:00:59.492Z,101916.42
2018-05-17T01:03:27.083Z,101916.20
2018-05-17T01:05:54.719Z,101914.98
2018-05-17T01:08:22.315Z,101928.02
2018-05-17T01:10:49.950Z,101927.45
2018-05-17T01:13:17.520Z,101925.13
2018-05-17T01:15:45.155Z,101912.48
2018-05-17T01:18:12.760Z,101911.70
2018-05-17T01:20:40.334Z,101910.47
2018-05-17T01:23:07.935Z,101917.19
2018-05-17T01:25:35.751Z,101920.63
2018-05-17T01:28:03.455Z,101916.89
2018-05-17T01:30:31.019Z,101919.86
2018-05-17T01:32:58.940Z,101920.53
2018-05-17T01:35:26.601Z,101920.80
2018-05-17T01:38:06.014Z,101912.23
2018-05-17T01:40:33.741Z,101914.96
2018-05-17T01:43:01.381Z,101914.13
2018-05-17T01:45:28.966Z,101910.36
2018-05-17T01:47:56.577Z,101907.95
2018-05-17T01:50:24.210Z,101911.23
2018-05-17T01:52:52.119Z,101905.13
2018-05-17T01:55:19.811Z,101910.38
2018-05-17T01:57:47.397Z,101916.78
2018-05-17T02:00:15.045Z,101911.14
2018-05-17T02:02:42.839Z,101916.80
2018-05-17T02:05:10.422Z,101922.38
2018-05-17T02:07:37.999Z,101922.36
2018-05-17T02:10:05.630Z,101925.23
2018-05-17T02:12:33.206Z,101929.86
2018-05-17T02:15:00.869Z,101924.14
2018-05-17T02:17:28.823Z,101929.44
2018-05-17T02:19:56.403Z,101925.64
2018-05-17T02:22:24.006Z,101926.36
2018-05-17T02:24:51.789Z,101924.43
2018-05-17T02:27:19.366Z,101924.57
2018-05-17T02:29:46.942Z,101922.30
2018-05-17T02:32:14.620Z,101922.41
2018-05-17T02:34:42.231Z,101923.28
2018-05-17T02:37:10.156Z,101929.23
2018-05-17T02:39:37.833Z,101930.81
2018-05-17T02:42:05.462Z,101924.19
2018-05-17T02:44:34.052Z,101924.19
2018-05-17T02:47:01.735Z,101920.97
2018-05-17T02:49:29.682Z,101923.65
2018-05-17T02:51:57.543Z,101915.75
2018-05-17T02:54:25.349Z,101927.95
2018-05-17T02:56:53.385Z,101923.38
2018-05-17T02:59:21.055Z,101927.30
2018-05-17T03:01:48.860Z,101925.44
2018-05-17T03:04:16.886Z,101929.19
2018-05-17T03:06:44.464Z,101935.16
2018-05-17T03:09:12.027Z,101922.55
2018-05-17T03:11:40.274Z,101920.11
2018-05-17T03:14:07.875Z,101922.41
2018-05-17T03:16:35.545Z,101926.77
2018-05-17T03:19:03.163Z,101925.50
2018-05-17T03:21:30.786Z,101932.30
2018-05-17T03:23:58.480Z,101929.59
2018-05-17T03:26:26.111Z,101930.06
2018-05-17T03:28:54.023Z,101931.64
2018-05-17T03:31:21.689Z,101927.97
2018-05-17T03:33:49.554Z,101927.17
2018-05-17T03:36:17.163Z,101934.75
2018-05-17T03:38:44.732Z,101934.24
2018-05-17T03:41:12.683Z,101935.16
2018-05-17T03:43:40.259Z,101938.14
2018-05-17T03:46:07.828Z,101934.50
2018-05-17T03:48:36.049Z,101939.11
2018-05-17T03:51:03.652Z,101938.02
2018-05-17T03:53:31.305Z,101938.57
2018-05-17T03:55:59.019Z,101938.00
2018-05-17T03:58:26.589Z,101941.94
2018-05-17T04:01:06.850Z,101936.94
2018-05-17T04:03:46.347Z,101932.73
2018-05-17T04:06:26.162Z,101932.71
2018-05-17T04:08:53.750Z,101927.81
2018-05-17T04:11:21.462Z,101926.89
2018-05-17T04:13:49.486Z,101931.21
2018-05-17T04:16:17.098Z,101931.37
2018-05-17T04:18:45.215Z,101927.30
2018-05-17T04:21:12.839Z,101935.59
2018-05-17T04:23:40.426Z,101938.73
2018-05-17T04:26:08.122Z,101937.09
2018-05-17T04:28:35.694Z,101942.06
2018-05-17T04:31:05.011Z,101944.22
2018-05-17T04:33:32.750Z,101943.84
2018-05-17T04:36:00.339Z,101938.41
2018-05-17T04:38:27.995Z,101935.16
2018-05-17T04:40:55.733Z,101944.25
2018-05-17T04:43:23.358Z,101941.95
2018-05-17T04:45:51.343Z,101953.19
2018-05-17T04:48:19.299Z,101949.42
2018-05-17T04:50:46.912Z,101946.56
2018-05-17T04:53:14.531Z,101949.53
2018-05-17T04:55:42.204Z,101945.37
2018-05-17T04:58:10.017Z,101947.91
2018-05-17T05:00:37.694Z,101944.51
2018-05-17T05:03:05.798Z,101948.55
2018-05-17T05:05:33.379Z,101948.53
2018-05-17T05:08:01.023Z,101945.26
2018-05-17T05:10:28.609Z,101943.90
2018-05-17T05:12:56.243Z,101955.33
2018-05-17T05:15:24.105Z,101947.05
2018-05-17T05:17:51.676Z,101944.89
2018-05-17T05:20:19.298Z,101942.41
2018-05-17T05:22:50.088Z,101950.95
2018-05-17T05:25:17.869Z,101952.31
2018-05-17T05:27:45.482Z,101945.78
2018-05-17T05:30:13.284Z,101942.92
2018-05-17T05:32:40.888Z,101946.72
2018-05-17T05:35:08.702Z,101948.08
2018-05-17T05:37:36.363Z,101958.36
2018-05-17T05:40:04.009Z,101953.34
2018-05-17T05:42:31.597Z,101962.99
2018-05-17T05:44:59.281Z,101953.95
2018-05-17T05:47:26.857Z,101957.20
2018-05-17T05:49:54.540Z,101963.14
2018-05-17T05:52:22.269Z,101966.45
2018-05-17T05:54:49.867Z,101968.58
2018-05-17T05:57:17.956Z,101963.95
2018-05-17T05:59:45.633Z,101975.20
2018-05-17T06:02:13.206Z,101980.12
2018-05-17T06:04:40.811Z,101973.31
2018-05-17T06:07:08.440Z,101977.53
2018-05-17T06:09:36.044Z,101977.38
2018-05-17T06:12:03.661Z,101976.25
2018-05-17T06:14:31.680Z,101973.64
2018-05-17T06:16:59.265Z,101976.21
2018-05-17T06:19:26.987Z,101978.09
2018-05-17T06:21:54.611Z,101974.45
2018-05-17T06:24:22.188Z,101973.13
2018-05-17T06:26:49.785Z,101975.00
2018-05-17T06:29:17.406Z,101969.27
2018-05-17T06:31:45.437Z,101964.90
2018-05-17T06:34:13.008Z,101968.17
2018-05-17T06:36:40.639Z,101964.30
2018-05-17T06:39:08.344Z,101961.00
2018-05-17T06:41:35.931Z,101968.72
2018-05-17T06:44:03.761Z,101962.95
2018-05-17T06:46:31.376Z,101961.44
2018-05-17T06:48:59.004Z,101964.93
2018-05-17T06:51:26.593Z,101964.03
2018-05-17T06:53:54.402Z,101954.34
2018-05-17T06:56:22.010Z,101963.11
2018-05-17T06:58:49.897Z,101964.56
2018-05-17T07:01:17.547Z,101967.22
2018-05-17T07:03:45.111Z,101973.34
2018-05-17T07:06:12.921Z,101976.20
2018-05-17T07:08:40.677Z,101973.34
2018-05-17T07:11:08.271Z,101968.66
2018-05-17T07:13:35.845Z,101972.27
2018-05-17T07:16:03.581Z,101974.82
2018-05-17T07:18:31.310Z,101983.42
2018-05-17T07:20:58.983Z,101980.68
2018-05-17T07:23:26.589Z,101989.72
2018-05-17T07:25:54.419Z,101982.73
2018-05-17T07:28:21.988Z,101982.17
2018-05-17T07:30:49.572Z,101986.52
2018-05-17T07:33:17.167Z,101990.38
2018-05-17T07:35:44.892Z,101981.73
2018-05-17T07:38:12.550Z,101991.48
2018-05-17T07:40:40.136Z,101986.58
2018-05-17T07:43:07.751Z,101994.41
2018-05-17T07:45:35.363Z,101990.84
2018-05-17T07:48:03.039Z,102000.09
2018-05-17T07:50:30.600Z,101990.91
2018-05-17T07:52:58.186Z,101992.45
2018-05-17T07:55:25.813Z,101993.16
2018-05-17T07:57:53.771Z,101994.70
2018-05-17T08:00:21.354Z,101995.41
2018-05-17T08:02:49.281Z,101995.91
2018-05-17T08:05:16.989Z,101993.50
2018-05-17T08:07:44.802Z,101991.06
2018-05-17T08:10:12.382Z,101991.15
2018-05-17T08:12:39.969Z,101990.64
2018-05-17T08:15:07.808Z,101996.91
2018-05-17T08:17:35.391Z,102005.77
2018-05-17T08:20:02.943Z,102001.23
2018-05-17T08:22:30.916Z,102000.84
2018-05-17T08:24:58.519Z,102004.34
2018-05-17T08:27:26.078Z,102010.37
2018-05-17T08:29:53.912Z,102010.80
2018-05-17T08:32:21.478Z,102008.00
2018-05-17T08:34:49.095Z,102010.76
2018-05-17T08:37:16.762Z,102007.53
2018-05-17T08:39:44.342Z,102007.08
2018-05-17T08:42:12.170Z,102008.77
2018-05-17T08:44:40.081Z,102015.02
2018-05-17T08:47:07.707Z,102007.54
2018-05-17T08:49:35.345Z,102007.46
2018-05-17T08:52:02.971Z,102014.43
2018-05-17T08:54:30.612Z,102006.72
2018-05-17T08:56:58.283Z,102013.03
2018-05-17T08:59:25.990Z,102013.55
2018-05-17T09:01:53.554Z,102013.81
2018-05-17T09:04:21.471Z,102003.25
2018-05-17T09:06:49.113Z,102001.71
2018-05-17T09:09:16.738Z,102011.59
2018-05-17T09:11:44.299Z,102004.59
2018-05-17T09:14:11.940Z,102012.86
2018-05-17T09:16:39.566Z,102010.13
2018-05-17T09:19:07.161Z,102014.72
2018-05-17T09:21:34.735Z,102014.88
2018-05-17T09:24:02.443Z,102008.38
2018-05-17T09:26:30.032Z,102015.83
2018-05-17T09:28:57.803Z,102007.50
2018-05-17T09:31:25.380Z,102013.56
2018-05-17T09:33:53.020Z,102015.44
2018-05-17T09:36:21.298Z,102027.77
2018-05-17T09:38:48.964Z,102022.80
2018-05-17T09:41:16.624Z,102023.04
2018-05-17T09:43:44.155Z,102017.45
2018-05-17T09:46:11.752Z,102022.50
2018-05-17T09:48:39.548Z,102017.52
2018-05-17T09:51:07.191Z,102016.00
2018-05-17T09:53:34.759Z,102017.49
2018-05-17T09:56:02.332Z,102026.05
2018-05-17T09:58:29.928Z,102019.53
2018-05-17T10:00:57.617Z,102011.40
2018-05-17T10:03:25.235Z,102019.41
2018-05-17T10:05:52.831Z,102015.16
2018-05-17T10:08:20.473Z,102016.45
2018-05-17T10:10:48.045Z,102007.95
2018-05-17T10:13:15.658Z,102010.92
2018-05-17T10:15:43.301Z,102010.57
2018-05-17T10:18:10.873Z,102018.05
2018-05-17T10:20:38.599Z,102020.41
2018-05-17T10:23:06.250Z,102018.41
2018-05-17T10:25:33.838Z,102019.33
2018-05-17T10:28:01.435Z,102021.23
2018-05-17T10:30:29.131Z,102012.27
2018-05-17T10:32:57.627Z,102015.67
2018-05-17T10:35:25.192Z,102011.53
2018-05-17T10:37:52.823Z,102019.06
2018-05-17T10:40:20.548Z,102012.44
2018-05-17T10:42:48.113Z,102014.49
2018-05-17T10:45:16.636Z,102004.80
2018-05-17T10:47:44.276Z,102014.09
2018-05-17T10:50:11.936Z,102015.12
2018-05-17T10:52:39.520Z,102016.75
2018-05-17T10:55:07.220Z,102023.03
2018-05-17T10:57:34.884Z,102025.09
2018-05-17T11:00:02.494Z,102023.63
2018-05-17T11:02:30.151Z,102019.69
2018-05-17T11:04:57.814Z,102013.44
2018-05-17T11:07:25.384Z,102017.42
2018-05-17T11:09:52.986Z,102024.72
2018-05-17T11:12:20.672Z,102021.55
2018-05-17T11:14:48.227Z,102027.55
2018-05-17T11:17:16.034Z,102027.02
2018-05-17T11:19:43.683Z,102016.94
2018-05-17T11:22:11.273Z,102016.97
2018-05-17T11:24:38.855Z,102013.42
2018-05-17T11:27:06.449Z,102008.98
2018-05-17T11:29:34.083Z,102020.67
2018-05-17T11:32:01.660Z,102019.11
2018-05-17T11:34:29.353Z,102021.98
2018-05-17T11:36:56.911Z,102033.97
2018-05-17T11:39:24.464Z,102020.89
2018-05-17T11:41:52.124Z,102018.86
2018-05-17T11:44:19.743Z,102024.08
2018-05-17T11:46:47.448Z,102017.66
2018-05-17T11:49:15.250Z,102020.22
2018-05-17T11:51:42.827Z,102020.38
2018-05-17T11:54:10.445Z,102019.87
2018-05-17T11:56:38.004Z,102024.98
2018-05-17T11:59:05.612Z,102029.86
2018-05-17T12:01:33.419Z,102024.78
2018-05-17T12:04:00.924Z,102031.08
2018-05-17T12:06:28.726Z,102026.02
2018-05-17T12:08:56.562Z,102029.27
2018-05-17T12:11:24.199Z,102023.32
2018-05-17T12:13:51.992Z,102023.50
2018-05-17T12:16:19.582Z,102028.62
2018-05-17T12:18:47.146Z,102019.52
2018-05-17T12:21:15.037Z,102022.48
2018-05-17T12:23:42.597Z,102029.33
2018-05-17T12:26:10.200Z,102025.17
2018-05-17T12:28:37.787Z,102016.66
2018-05-17T12:31:05.343Z,102024.36
2018-05-17T12:33:32.968Z,102021.55
2018-05-17T12:36:00.591Z,102025.44
2018-05-17T12:38:28.184Z,102025.44
2018-05-17T12:40:55.743Z,102020.28
2018-05-17T12:43:23.836Z,102025.55
2018-05-17T12:45:51.400Z,102025.44
2018-05-17T12:48:18.964Z,102024.20
2018-05-17T12:50:47.211Z,102021.59
2018-05-17T12:53:15.014Z,102017.06
2018-05-17T12:55:42.625Z,102019.92
2018-05-17T12:58:10.645Z,102018.27
2018-05-17T13:00:37.947Z,102017.39
2018-05-17T13:03:05.739Z,102019.91
2018-05-17T13:05:33.388Z,102022.27
2018-05-17T13:08:01.079Z,102020.89
2018-05-17T13:10:28.704Z,102020.73
2018-05-17T13:12:56.327Z,102023.41
2018-05-17T13:15:23.943Z,102011.67
2018-05-17T13:17:51.504Z,102009.29
2018-05-17T13:20:19.524Z,102018.83
2018-05-17T13:22:47.083Z,102011.70
2018-05-17T13:25:14.640Z,102021.35
2018-05-17T13:27:42.346Z,102018.86
2018-05-17T13:30:10.287Z,102011.62
2018-05-17T13:32:37.820Z,102015.02
2018-05-17T13:35:05.408Z,102019.86
2018-05-17T13:37:33.157Z,102019.56
2018-05-17T13:40:00.666Z,102016.87
2018-05-17T13:42:28.247Z,102022.14
2018-05-17T13:44:55.938Z,102017.28
2018-05-17T13:47:23.491Z,102009.63
2018-05-17T13:49:51.054Z,102010.78
2018-05-17T13:52:18.998Z,102006.34
2018-05-17T13:54:46.565Z,102004.92
2018-05-17T13:57:14.197Z,101997.41
2018-05-17T13:59:41.979Z,101997.17
2018-05-17T14:02:09.775Z,102007.35
2018-05-17T14:04:37.337Z,102003.27
2018-05-17T14:07:05.320Z,102002.73
2018-05-17T14:09:32.878Z,102003.16
2018-05-17T14:12:00.452Z,102012.09
2018-05-17T14:14:28.051Z,102000.04
2018-05-17T14:16:55.611Z,102005.91
2018-05-17T14:19:23.200Z,102002.06
2018-05-17T14:21:50.999Z,102004.92
2018-05-17T14:24:18.692Z,102006.16
2018-05-17T14:26:46.264Z,102007.41
2018-05-17T14:29:14.121Z,102015.62
2018-05-17T14:31:41.773Z,102011.88
2018-05-17T14:34:09.337Z,102009.72
2018-05-17T14:36:37.312Z,102010.71
2018-05-17T14:39:05.791Z,102018.56
2018-05-17T14:41:33.346Z,102019.28
2018-05-17T14:44:00.938Z,102021.09
2018-05-17T14:46:28.499Z,102014.92
2018-05-17T14:48:56.407Z,102009.62
2018-05-17T14:51:23.972Z,102012.72
2018-05-17T14:53:51.600Z,102015.49
2018-05-17T14:56:19.694Z,102026.65
2018-05-17T14:58:47.376Z,102018.67
2018-05-17T15:01:14.950Z,102019.16
2018-05-17T15:03:42.549Z,102012.42
2018-05-17T15:06:10.398Z,102008.27
2018-05-17T15:08:38.698Z,102009.85
2018-05-17T15:11:06.258Z,102011.93
2018-05-17T15:13:33.828Z,102014.02
2018-05-17T15:16:01.492Z,102012.66
2018-05-17T15:18:29.325Z,102016.59
2018-05-17T15:20:56.948Z,102016.86
2018-05-17T15:23:24.820Z,102014.62
2018-05-17T15:25:52.731Z,102013.02
2018-05-17T15:28:20.405Z,102010.88
2018-05-17T15:30:47.962Z,102002.78
2018-05-17T15:33:15.524Z,102005.88
2018-05-17T15:35:43.118Z,102004.14
2018-05-17T15:38:11.130Z,102007.39
2018-05-17T15:40:38.797Z,102008.45
2018-05-17T15:43:06.365Z,102003.37
2018-05-17T15:45:33.948Z,102000.54
2018-05-17T15:48:01.827Z,102007.00
2018-05-17T15:50:29.475Z,102004.34
2018-05-17T15:52:57.037Z,101999.31
2018-05-17T15:55:25.269Z,101998.44
2018-05-17T15:57:52.827Z,102001.91
2018-05-17T16:00:20.394Z,101997.10
2018-05-17T16:02:48.010Z,101996.65
2018-05-17T16:05:15.624Z,101999.44
2018-05-17T16:07:43.255Z,102005.18
2018-05-17T16:10:10.819Z,102000.35
2018-05-17T16:12:38.399Z,102003.08
2018-05-17T16:15:06.115Z,102002.73
2018-05-17T16:17:33.612Z,102003.48
2018-05-17T16:20:01.273Z,102007.84
2018-05-17T16:22:29.073Z,102008.37
2018-05-17T16:24:57.022Z,102008.97
2018-05-17T16:27:24.649Z,102004.55
2018-05-17T16:29:52.825Z,102004.09
2018-05-17T16:32:20.390Z,102002.94
2018-05-17T16:34:47.951Z,102006.55
2018-05-17T16:37:15.543Z,102018.23
2018-05-17T16:39:43.375Z,102007.06
2018-05-17T16:42:11.133Z,102009.61
2018-05-17T16:44:38.706Z,102012.09
2018-05-17T16:47:06.517Z,102013.59
2018-05-17T16:49:34.115Z,102017.05
2018-05-17T16:52:01.880Z,102023.03
2018-05-17T16:54:29.526Z,102019.75
2018-05-17T16:56:57.099Z,102020.66
2018-05-17T16:59:25.088Z,102022.11
2018-05-17T17:01:52.712Z,102015.93
2018-05-17T17:04:20.372Z,102011.91
2018-05-17T17:06:48.203Z,102017.77
2018-05-17T17:09:15.766Z,102017.88
2018-05-17T17:11:43.882Z,102016.94
2018-05-17T17:14:11.445Z,102010.16
2018-05-17T17:16:39.079Z,102018.16
2018-05-17T17:19:06.929Z,102014.04
2018-05-17T17:21:34.580Z,102010.20
2018-05-17T17:24:02.191Z,102021.30
2018-05-17T17:26:29.852Z,102018.94
2018-05-17T17:28:57.692Z,102011.20
2018-05-17T17:31:25.280Z,102019.23
2018-05-17T17:33:53.103Z,102022.34
2018-05-17T17:36:20.837Z,102016.48
2018-05-17T17:38:48.408Z,102018.27
2018-05-17T17:41:16.184Z,102016.22
2018-05-17T17:43:43.770Z,102008.53
2018-05-17T17:46:11.413Z,102009.17
2018-05-17T17:48:39.047Z,102007.70
2018-05-17T17:51:06.626Z,102010.12
2018-05-17T17:53:34.205Z,102010.47
2018-05-17T17:56:01.844Z,102011.64
2018-05-17T17:58:29.572Z,102022.24
2018-05-17T18:00:57.346Z,102014.06
2018-05-17T18:03:24.961Z,102020.17
2018-05-17T18:05:52.795Z,102016.03
2018-05-17T18:08:20.444Z,102006.80
2018-05-17T18:10:48.048Z,102017.51
2018-05-17T18:13:15.680Z,102018.81
2018-05-17T18:15:43.285Z,102023.21
2018-05-17T18:18:11.739Z,102019.55
2018-05-17T18:20:39.573Z,102025.42
2018-05-17T18:23:07.155Z,102027.00
2018-05-17T18:25:34.989Z,102024.86
2018-05-17T18:28:02.611Z,102026.84
2018-05-17T18:30:30.195Z,102027.13
2018-05-17T18:32:58.425Z,102034.85
2018-05-17T18:35:26.064Z,102024.13
2018-05-17T18:37:53.635Z,102030.14
2018-05-17T18:40:21.234Z,102027.61
2018-05-17T18:42:48.840Z,102026.83
2018-05-17T18:45:16.573Z,102027.66
2018-05-17T18:47:44.229Z,102030.41
2018-05-17T18:50:11.832Z,102036.66
2018-05-17T18:52:39.453Z,102034.59
2018-05-17T18:55:07.071Z,102046.77
2018-05-17T18:57:34.811Z,102037.80
2018-05-17T19:00:02.394Z,102030.05
2018-05-17T19:02:29.987Z,102044.75
2018-05-17T19:04:57.611Z,102047.45
2018-05-17T19:07:25.264Z,102050.97
2018-05-17T19:09:53.379Z,102052.88
2018-05-17T19:12:20.982Z,102054.52
2018-05-17T19:14:48.591Z,102060.36
2018-05-17T19:17:16.495Z,102054.64
2018-05-17T19:19:44.171Z,102052.16
2018-05-17T19:22:11.765Z,102056.09
2018-05-17T19:24:39.333Z,102056.78
2018-05-17T19:27:06.939Z,102060.73
2018-05-17T19:29:34.571Z,102056.41
2018-05-17T19:32:02.163Z,102065.88
2018-05-17T19:34:29.912Z,102069.69
2018-05-17T19:36:57.557Z,102069.55
2018-05-17T19:39:25.401Z,102072.79
2018-05-17T19:41:53.006Z,102073.16
2018-05-17T19:44:20.861Z,102074.52
2018-05-17T19:46:48.516Z,102074.01
2018-05-17T19:49:16.124Z,102084.88
2018-05-17T19:51:43.728Z,102081.64
2018-05-17T19:54:11.301Z,102076.81
2018-05-17T19:56:39.317Z,102085.53
2018-05-17T19:59:06.900Z,102085.39
2018-05-17T20:01:34.479Z,102087.69
2018-05-17T20:04:02.166Z,102084.98
2018-05-17T20:06:29.768Z,102087.83
2018-05-17T20:08:57.371Z,102087.72
2018-05-17T20:11:25.110Z,102095.84
2018-05-17T20:13:52.692Z,102091.39
2018-05-17T20:16:20.478Z,102093.29
2018-05-17T20:18:48.175Z,102092.77
2018-05-17T20:21:15.841Z,102099.13
2018-05-17T20:23:43.613Z,102094.54
2018-05-17T20:26:11.528Z,102097.50
2018-05-17T20:28:39.145Z,102101.88
2018-05-17T20:31:06.861Z,102093.59
2018-05-17T20:33:34.659Z,102097.28
2018-05-17T20:36:02.236Z,102104.18
2018-05-17T20:38:29.945Z,102106.05
2018-05-17T20:40:57.760Z,102101.19
2018-05-17T20:43:25.459Z,102097.92
2018-05-17T20:45:53.088Z,102097.78
2018-05-17T20:48:20.920Z,102097.50
2018-05-17T20:50:48.511Z,102102.00
2018-05-17T20:53:16.137Z,102097.35
2018-05-17T20:55:43.727Z,102098.20
2018-05-17T20:58:11.304Z,102098.05
2018-05-17T21:00:38.928Z,102105.91
2018-05-17T21:03:06.747Z,102102.11
2018-05-17T21:05:34.474Z,102095.90
2018-05-17T21:08:02.726Z,102103.61
2018-05-17T21:10:30.389Z,102099.11
2018-05-17T21:12:59.625Z,102102.24
2018-05-17T21:15:27.586Z,102104.55
2018-05-17T21:17:55.463Z,102102.55
2018-05-17T21:20:23.108Z,102105.94
2018-05-17T21:22:50.683Z,102105.55
2018-05-17T21:27:55.253Z,102102.58
2018-05-17T21:30:24.186Z,102099.60
2018-05-17T21:32:53.874Z,102102.89
2018-05-17T21:35:21.853Z,102096.38
2018-05-17T21:37:51.446Z,102095.33
2018-05-17T21:40:20.049Z,102095.78
2018-05-17T21:42:49.059Z,102101.45
2018-05-17T21:45:16.648Z,102094.42
2018-05-17T21:47:44.231Z,102102.94
2018-05-17T21:50:12.121Z,102093.02
2018-05-17T21:52:40.179Z,102089.52
2018-05-17T21:55:07.757Z,102096.86
2018-05-17T21:57:35.373Z,102095.66
2018-05-17T22:00:03.359Z,102085.08
2018-05-17T22:02:30.937Z,102090.67
2018-05-17T22:04:58.569Z,102079.67
2018-05-17T22:07:26.761Z,102082.78
2018-05-17T22:09:54.447Z,102070.84
2018-05-17T22:12:22.032Z,102077.09
2018-05-17T22:14:49.638Z,102070.41
2018-05-17T22:17:17.204Z,102072.31
2018-05-17T22:19:44.816Z,102082.11
2018-05-17T22:22:12.475Z,102080.26
2018-05-17T22:24:40.318Z,102072.62
2018-05-17T22:27:07.920Z,102072.06
2018-05-17T22:29:35.545Z,102070.47
2018-05-17T22:32:03.429Z,102073.17
2018-05-17T22:34:31.272Z,102075.06
2018-05-17T22:36:58.893Z,102073.41
2018-05-17T22:39:26.604Z,102070.32
2018-05-17T22:41:54.187Z,102078.34
2018-05-17T22:44:21.760Z,102082.28
2018-05-17T22:46:49.666Z,102073.73
2018-05-17T22:49:17.251Z,102076.20
2018-05-17T22:51:45.243Z,102079.70
2018-05-17T22:54:12.880Z,102080.67
2018-05-17T22:56:52.188Z,102073.25
2018-05-17T22:59:19.761Z,102067.17
2018-05-17T23:01:47.379Z,102074.09
2018-05-17T23:04:14.988Z,102076.80
2018-05-17T23:06:42.841Z,102071.52
2018-05-17T23:09:10.804Z,102071.39
2018-05-17T23:11:38.373Z,102068.12
2018-05-17T23:14:06.823Z,102071.91
2018-05-17T23:16:35.004Z,102071.77
2018-05-17T23:19:02.633Z,102069.61
2018-05-17T23:21:30.282Z,102066.47
2018-05-17T23:23:58.735Z,102067.41
2018-05-17T23:26:26.352Z,102062.55
2018-05-17T23:28:54.030Z,102067.55
2018-05-17T23:31:21.619Z,102073.38
2018-05-17T23:33:49.224Z,102067.67
2018-05-17T23:36:16.890Z,102069.16
2018-05-17T23:38:44.467Z,102065.75
2018-05-17T23:41:23.941Z,102063.32
2018-05-17T23:43:51.527Z,102058.17
2018-05-17T23:46:19.243Z,102052.48
2018-05-17T23:48:47.004Z,102058.59
2018-05-17T23:51:14.585Z,102052.25
2018-05-17T23:53:42.160Z,102052.89
2018-05-17T23:56:10.092Z,102058.33
2018-05-17T23:58:37.791Z,102057.25
